createdAt,value
2019-02-27T00:02:22.717Z,15.08
2019-02-27T00:04:47.620Z,15.02
2019-02-27T00:07:15.869Z,14.93
2019-02-27T00:09:44.615Z,14.89
2019-02-27T00:12:12.193Z,14.88
2019-02-27T00:14:42.243Z,14.90
2019-02-27T00:17:17.748Z,14.90
2019-02-27T00:19:44.252Z,14.87
2019-02-27T00:22:11.301Z,14.85
2019-02-27T00:24:38.273Z,14.83
2019-02-27T00:27:06.715Z,14.85
2019-02-27T00:29:33.725Z,14.86
2019-02-27T00:32:00.979Z,14.82
2019-02-27T00:34:28.278Z,14.78
2019-02-27T00:36:55.790Z,14.74
2019-02-27T00:39:22.870Z,14.71
2019-02-27T00:41:49.827Z,14.69
2019-02-27T00:44:16.764Z,14.65
2019-02-27T00:46:46.102Z,14.59
2019-02-27T00:49:12.434Z,14.68
2019-02-27T00:51:39.763Z,14.75
2019-02-27T00:54:09.779Z,14.81
2019-02-27T00:56:36.728Z,14.84
2019-02-27T00:59:04.051Z,14.77
2019-02-27T01:01:30.994Z,14.70
2019-02-27T01:04:01.052Z,14.61
2019-02-27T01:06:26.682Z,14.60
2019-02-27T01:08:53.976Z,14.55
2019-02-27T01:11:21.466Z,14.49
2019-02-27T01:13:48.447Z,14.45
2019-02-27T01:16:17.252Z,14.44
2019-02-27T01:18:44.316Z,14.42
2019-02-27T01:24:02.447Z,14.38
2019-02-27T01:26:31.524Z,14.34
2019-02-27T01:28:59.024Z,14.28
2019-02-27T01:31:26.000Z,14.22
2019-02-27T01:33:53.405Z,14.19
2019-02-27T01:36:21.801Z,14.06
2019-02-27T01:38:49.299Z,13.98
2019-02-27T01:41:16.369Z,13.94
2019-02-27T01:43:46.923Z,13.90
2019-02-27T01:46:13.929Z,13.84
2019-02-27T01:48:43.706Z,13.80
2019-02-27T01:51:11.868Z,13.74
2019-02-27T01:53:40.472Z,13.63
2019-02-27T01:56:08.409Z,13.56
2019-02-27T01:58:36.570Z,13.53
2019-02-27T02:01:03.859Z,13.50
2019-02-27T02:03:34.416Z,13.45
2019-02-27T02:06:04.365Z,13.43
2019-02-27T02:08:34.460Z,13.46
2019-02-27T02:11:02.126Z,13.48
2019-02-27T02:13:30.573Z,13.40
2019-02-27T02:15:58.180Z,13.39
2019-02-27T02:18:28.489Z,13.39
2019-02-27T02:20:58.155Z,13.38
2019-02-27T02:23:24.204Z,13.35
2019-02-27T02:25:51.595Z,13.29
2019-02-27T02:28:20.206Z,13.29
2019-02-27T02:30:47.288Z,13.35
2019-02-27T02:33:14.783Z,13.42
2019-02-27T02:35:46.843Z,13.51
2019-02-27T02:38:13.718Z,13.53
2019-02-27T02:40:40.860Z,13.53
2019-02-27T02:43:08.200Z,13.53
2019-02-27T02:45:35.738Z,13.58
2019-02-27T02:48:02.763Z,13.62
2019-02-27T02:50:30.093Z,13.60
2019-02-27T02:52:57.206Z,13.62
2019-02-27T02:55:24.701Z,13.65
2019-02-27T02:57:53.323Z,13.57
2019-02-27T03:02:57.489Z,13.44
2019-02-27T03:05:25.285Z,13.41
2019-02-27T03:07:52.403Z,13.43
2019-02-27T03:10:19.621Z,13.41
2019-02-27T03:12:52.592Z,13.35
2019-02-27T03:15:19.594Z,13.26
2019-02-27T03:17:46.658Z,13.18
2019-02-27T03:20:16.782Z,13.28
2019-02-27T03:22:42.472Z,13.30
2019-02-27T03:25:09.451Z,13.37
2019-02-27T03:27:36.395Z,13.37
2019-02-27T03:30:03.419Z,13.36
2019-02-27T03:32:41.189Z,13.35
2019-02-27T03:35:01.322Z,13.31
2019-02-27T03:37:28.329Z,13.25
2019-02-27T03:39:55.380Z,13.30
2019-02-27T03:42:22.339Z,13.28
2019-02-27T03:44:49.356Z,13.26
2019-02-27T03:47:17.096Z,13.23
2019-02-27T03:49:52.397Z,13.15
2019-02-27T03:52:20.684Z,13.09
2019-02-27T03:54:44.958Z,13.10
2019-02-27T03:57:11.862Z,13.04
2019-02-27T03:59:42.471Z,13.00
2019-02-27T04:02:07.566Z,12.95
2019-02-27T04:04:34.866Z,12.92
2019-02-27T04:07:04.398Z,12.93
2019-02-27T04:09:31.417Z,12.96
2019-02-27T04:11:58.747Z,12.93
2019-02-27T04:14:26.231Z,12.89
2019-02-27T04:16:54.848Z,12.86
2019-02-27T04:19:21.818Z,12.83
2019-02-27T04:21:48.813Z,12.78
2019-02-27T04:24:15.851Z,12.71
2019-02-27T04:26:42.875Z,12.71
2019-02-27T04:29:10.162Z,12.70
2019-02-27T04:31:37.161Z,12.72
2019-02-27T04:34:05.866Z,12.70
2019-02-27T04:36:42.184Z,12.57
2019-02-27T04:41:44.456Z,12.34
2019-02-27T04:44:11.435Z,12.27
2019-02-27T04:46:38.403Z,12.25
2019-02-27T04:49:06.215Z,12.26
2019-02-27T04:51:48.045Z,12.28
2019-02-27T04:54:15.316Z,12.29
2019-02-27T04:56:42.302Z,12.18
2019-02-27T04:59:09.557Z,12.15
2019-02-27T05:01:37.338Z,12.15
2019-02-27T05:04:04.767Z,12.14
2019-02-27T05:06:31.782Z,12.12
2019-02-27T05:09:00.196Z,12.19
2019-02-27T05:11:28.610Z,12.28
2019-02-27T05:13:55.556Z,12.34
2019-02-27T05:16:22.903Z,12.39
2019-02-27T05:18:50.263Z,12.41
2019-02-27T05:21:19.237Z,12.44
2019-02-27T05:23:46.685Z,12.47
2019-02-27T05:26:13.654Z,12.45
2019-02-27T05:28:40.610Z,12.35
2019-02-27T05:31:07.486Z,12.22
2019-02-27T05:33:36.505Z,12.14
2019-02-27T05:36:03.722Z,12.12
2019-02-27T05:38:33.017Z,12.18
2019-02-27T05:41:00.596Z,12.24
2019-02-27T05:43:27.899Z,12.27
2019-02-27T05:45:54.842Z,12.28
2019-02-27T05:48:22.038Z,12.27
2019-02-27T05:50:51.927Z,12.29
2019-02-27T05:53:22.127Z,12.30
2019-02-27T05:55:47.939Z,12.33
2019-02-27T05:58:16.390Z,12.33
2019-02-27T06:00:44.395Z,12.31
2019-02-27T06:03:11.421Z,12.29
2019-02-27T06:05:38.686Z,12.32
2019-02-27T06:08:05.998Z,12.32
2019-02-27T06:10:33.304Z,12.30
2019-02-27T06:13:00.257Z,12.30
2019-02-27T06:15:28.604Z,12.27
2019-02-27T06:17:56.302Z,12.27
2019-02-27T06:20:23.271Z,12.27
2019-02-27T06:22:50.528Z,12.28
2019-02-27T06:25:21.681Z,12.22
2019-02-27T06:27:46.338Z,12.19
2019-02-27T06:30:13.600Z,12.25
2019-02-27T06:32:40.787Z,12.27
2019-02-27T06:35:08.029Z,12.27
2019-02-27T06:37:35.306Z,12.24
2019-02-27T06:40:04.761Z,12.21
2019-02-27T06:42:31.221Z,12.17
2019-02-27T06:44:58.294Z,12.18
2019-02-27T06:47:25.566Z,12.23
2019-02-27T06:49:52.565Z,12.26
2019-02-27T06:52:19.544Z,12.26
2019-02-27T06:54:46.833Z,12.32
2019-02-27T06:57:13.906Z,12.34
2019-02-27T07:02:19.107Z,12.60
2019-02-27T07:04:44.994Z,12.63
2019-02-27T07:07:12.033Z,12.73
2019-02-27T07:09:39.011Z,12.79
2019-02-27T07:12:07.255Z,12.90
2019-02-27T07:14:36.492Z,13.10
2019-02-27T07:17:03.401Z,13.25
2019-02-27T07:19:30.332Z,13.47
2019-02-27T07:21:57.270Z,13.72
2019-02-27T07:24:37.220Z,13.86
2019-02-27T07:27:04.415Z,13.81
2019-02-27T07:29:31.401Z,13.87
2019-02-27T07:32:00.032Z,13.97
2019-02-27T07:34:27.535Z,14.17
2019-02-27T07:36:54.790Z,14.39
2019-02-27T07:39:21.945Z,14.49
2019-02-27T07:41:49.229Z,14.62
2019-02-27T07:44:16.557Z,14.80
2019-02-27T07:46:45.225Z,14.93
2019-02-27T07:49:12.447Z,15.12
2019-02-27T07:51:39.429Z,15.33
2019-02-27T07:54:06.830Z,15.52
2019-02-27T07:56:34.296Z,15.66
2019-02-27T07:59:01.271Z,15.80
2019-02-27T08:01:28.264Z,15.90
2019-02-27T08:03:57.540Z,15.94
2019-02-27T08:06:24.757Z,15.95
2019-02-27T08:08:51.741Z,16.02
2019-02-27T08:11:19.048Z,16.08
2019-02-27T08:13:45.940Z,16.18
2019-02-27T08:16:12.943Z,16.27
2019-02-27T08:18:39.921Z,16.32
2019-02-27T08:21:06.949Z,16.33
2019-02-27T08:23:33.940Z,16.31
2019-02-27T08:26:04.733Z,16.34
2019-02-27T08:28:30.126Z,16.34
2019-02-27T08:30:57.107Z,16.27
2019-02-27T08:33:26.299Z,16.28
2019-02-27T08:35:53.580Z,16.36
2019-02-27T08:38:23.652Z,16.44
2019-02-27T08:40:50.770Z,16.46
2019-02-27T08:43:18.185Z,16.48
2019-02-27T08:45:45.090Z,16.40
2019-02-27T08:48:12.091Z,16.50
2019-02-27T08:50:39.372Z,16.61
2019-02-27T08:53:06.468Z,16.71
2019-02-27T08:55:33.411Z,16.72
2019-02-27T08:58:00.617Z,16.77
2019-02-27T09:00:27.630Z,16.82
2019-02-27T09:02:55.700Z,16.94
2019-02-27T09:05:23.395Z,17.02
2019-02-27T09:07:50.684Z,17.02
2019-02-27T09:10:17.924Z,17.06
2019-02-27T09:12:45.443Z,17.17
2019-02-27T09:15:13.838Z,17.22
2019-02-27T09:17:40.801Z,17.32
2019-02-27T09:20:07.892Z,17.34
2019-02-27T09:22:37.465Z,17.39
2019-02-27T09:25:05.663Z,17.41
2019-02-27T09:27:32.999Z,17.46
2019-02-27T09:30:02.742Z,17.48
2019-02-27T09:32:29.927Z,17.52
2019-02-27T09:34:59.658Z,17.55
2019-02-27T09:37:26.324Z,17.59
2019-02-27T09:39:53.317Z,17.59
2019-02-27T09:42:20.308Z,17.60
2019-02-27T09:44:47.415Z,17.64
2019-02-27T09:47:14.840Z,17.70
2019-02-27T09:49:41.796Z,17.75
2019-02-27T09:52:09.782Z,17.80
2019-02-27T09:54:36.971Z,17.85
2019-02-27T09:57:04.167Z,17.91
2019-02-27T09:59:31.229Z,17.94
2019-02-27T10:01:58.493Z,18.00
2019-02-27T10:04:28.950Z,18.06
2019-02-27T10:06:54.669Z,18.10
2019-02-27T10:09:21.716Z,18.13
2019-02-27T10:11:48.689Z,18.17
2019-02-27T10:14:16.429Z,18.23
2019-02-27T10:16:44.367Z,18.28
2019-02-27T10:19:11.644Z,18.31
2019-02-27T10:21:44.514Z,18.36
2019-02-27T10:24:10.754Z,18.38
2019-02-27T10:26:37.765Z,18.47
2019-02-27T10:29:04.841Z,18.54
2019-02-27T10:31:33.444Z,18.59
2019-02-27T10:34:00.529Z,18.63
2019-02-27T10:36:27.842Z,18.64
2019-02-27T10:38:55.091Z,18.66
2019-02-27T10:41:22.105Z,18.65
2019-02-27T10:43:53.983Z,18.66
2019-02-27T10:46:23.661Z,18.66
2019-02-27T10:48:51.791Z,18.66
2019-02-27T10:51:18.959Z,18.68
2019-02-27T10:53:46.281Z,18.72
2019-02-27T10:56:13.324Z,18.79
2019-02-27T10:58:40.565Z,18.89
2019-02-27T11:01:07.835Z,18.93
2019-02-27T11:03:36.069Z,18.97
2019-02-27T11:06:03.094Z,19.03
2019-02-27T11:08:30.375Z,19.09
2019-02-27T11:10:58.516Z,19.15
2019-02-27T11:13:25.457Z,19.20
2019-02-27T11:15:54.034Z,19.21
2019-02-27T11:18:21.027Z,19.16
2019-02-27T11:20:48.075Z,19.10
2019-02-27T11:23:15.850Z,19.06
2019-02-27T11:25:45.199Z,19.04
2019-02-27T11:28:12.062Z,19.05
2019-02-27T11:30:39.362Z,19.04
2019-02-27T11:33:06.464Z,19.06
2019-02-27T11:35:36.247Z,19.09
2019-02-27T11:38:14.196Z,19.25
2019-02-27T11:41:19.562Z,19.45
2019-02-27T11:45:23.997Z,19.53
2019-02-27T11:46:44.839Z,19.65
2019-02-27T11:51:32.346Z,19.86
2019-02-27T11:53:59.841Z,19.95
2019-02-27T11:56:27.267Z,20.02
2019-02-27T11:59:12.896Z,20.08
2019-02-27T12:01:37.893Z,20.15
2019-02-27T12:04:08.206Z,20.17
2019-02-27T12:06:54.330Z,20.21
2019-02-27T12:09:36.740Z,20.28
2019-02-27T12:12:22.505Z,20.33
2019-02-27T12:15:06.750Z,20.38
2019-02-27T12:17:33.294Z,20.43
2019-02-27T12:20:00.271Z,20.45
2019-02-27T12:22:27.390Z,20.42
2019-02-27T12:24:58.238Z,20.36
2019-02-27T12:27:48.730Z,20.35
2019-02-27T12:30:07.785Z,20.35
2019-02-27T12:32:41.583Z,20.33
2019-02-27T12:35:10.990Z,20.34
2019-02-27T12:37:38.526Z,20.38
2019-02-27T12:40:05.912Z,20.39
2019-02-27T12:42:37.369Z,20.41
2019-02-27T12:45:06.355Z,20.44
2019-02-27T12:47:41.534Z,20.42
2019-02-27T12:50:06.950Z,20.45
2019-02-27T12:52:34.215Z,20.47
2019-02-27T12:55:01.780Z,20.49
2019-02-27T12:57:31.233Z,20.51
2019-02-27T12:59:58.273Z,20.52
2019-02-27T13:02:35.227Z,20.55
2019-02-27T13:04:57.875Z,20.54
2019-02-27T13:07:24.419Z,20.46
2019-02-27T13:15:51.744Z,20.37
2019-02-27T13:20:54.511Z,20.57
2019-02-27T13:23:21.824Z,20.68
2019-02-27T13:25:51.486Z,20.77
2019-02-27T13:28:18.505Z,20.81
2019-02-27T13:30:45.477Z,20.85
2019-02-27T13:33:13.604Z,20.87
2019-02-27T13:35:43.318Z,20.92
2019-02-27T13:38:10.374Z,20.96
2019-02-27T13:40:39.109Z,21.00
2019-02-27T13:43:06.115Z,21.04
2019-02-27T13:45:33.112Z,21.07
2019-02-27T13:48:04.955Z,21.09
2019-02-27T13:50:29.025Z,21.11
2019-02-27T13:52:56.267Z,21.10
2019-02-27T13:55:23.372Z,21.14
2019-02-27T13:57:50.399Z,21.17
2019-02-27T14:00:20.626Z,21.19
2019-02-27T14:02:46.117Z,21.21
2019-02-27T14:05:13.366Z,21.22
2019-02-27T14:07:40.667Z,21.24
2019-02-27T14:10:07.595Z,21.23
2019-02-27T14:12:36.378Z,21.22
2019-02-27T14:15:03.353Z,21.20
2019-02-27T14:17:31.967Z,21.18
2019-02-27T14:19:58.860Z,21.13
2019-02-27T14:22:26.856Z,21.08
2019-02-27T14:24:54.830Z,21.02
2019-02-27T14:27:22.911Z,21.00
2019-02-27T14:29:50.166Z,20.99
2019-02-27T14:32:17.105Z,21.00
2019-02-27T14:34:44.028Z,21.04
2019-02-27T14:37:11.094Z,21.05
2019-02-27T14:39:38.347Z,21.08
2019-02-27T14:42:06.981Z,21.06
2019-02-27T14:44:33.971Z,21.01
2019-02-27T14:47:01.001Z,20.97
2019-02-27T14:49:30.252Z,20.93
2019-02-27T14:51:57.221Z,20.88
2019-02-27T14:54:26.081Z,20.86
2019-02-27T14:56:53.518Z,20.90
2019-02-27T14:59:20.748Z,20.92
2019-02-27T15:01:49.197Z,20.91
2019-02-27T15:04:16.690Z,20.89
2019-02-27T15:06:43.700Z,20.93
2019-02-27T15:09:10.788Z,20.93
2019-02-27T15:11:38.228Z,20.91
2019-02-27T15:14:05.476Z,20.95
2019-02-27T15:16:32.692Z,20.99
2019-02-27T15:19:05.841Z,21.04
2019-02-27T15:21:43.937Z,21.07
2019-02-27T15:24:25.550Z,21.00
2019-02-27T15:27:01.793Z,20.93
2019-02-27T15:29:46.975Z,20.89
2019-02-27T15:32:14.344Z,20.76
2019-02-27T15:34:42.707Z,20.79
2019-02-27T15:37:10.551Z,20.84
2019-02-27T15:39:39.005Z,20.91
2019-02-27T15:42:09.700Z,20.95
2019-02-27T15:44:35.738Z,20.92
2019-02-27T15:47:02.743Z,20.89
2019-02-27T15:49:29.817Z,20.89
2019-02-27T15:51:56.804Z,20.91
2019-02-27T15:54:25.058Z,20.87
2019-02-27T15:56:52.102Z,20.83
2019-02-27T15:59:19.121Z,20.79
2019-02-27T16:01:46.077Z,20.76
2019-02-27T16:04:13.430Z,20.75
2019-02-27T16:06:40.688Z,20.73
2019-02-27T16:09:08.007Z,20.72
2019-02-27T16:11:36.601Z,20.73
2019-02-27T16:14:09.168Z,20.69
2019-02-27T16:16:35.018Z,20.67
2019-02-27T16:19:02.289Z,20.65
2019-02-27T16:21:29.674Z,20.64
2019-02-27T16:23:56.678Z,20.65
2019-02-27T16:26:27.013Z,20.65
2019-02-27T16:28:52.803Z,20.67
2019-02-27T16:31:19.754Z,20.73
2019-02-27T16:33:46.707Z,20.78
2019-02-27T16:36:15.562Z,20.80
2019-02-27T16:38:42.567Z,20.79
2019-02-27T16:41:09.786Z,20.76
2019-02-27T16:43:36.979Z,20.72
2019-02-27T16:46:07.683Z,20.70
2019-02-27T16:48:34.613Z,20.68
2019-02-27T16:51:01.242Z,20.65
2019-02-27T16:53:28.286Z,20.62
2019-02-27T16:55:55.577Z,20.57
2019-02-27T16:58:22.453Z,20.54
2019-02-27T17:00:54.414Z,20.49
2019-02-27T17:03:18.049Z,20.42
2019-02-27T17:05:45.033Z,20.41
2019-02-27T17:08:12.000Z,20.41
2019-02-27T17:10:38.990Z,20.40
2019-02-27T17:13:06.195Z,20.40
2019-02-27T17:15:35.805Z,20.38
2019-02-27T17:18:01.799Z,20.35
2019-02-27T17:20:30.121Z,20.25
2019-02-27T17:22:57.307Z,20.20
2019-02-27T17:25:28.954Z,20.15
2019-02-27T17:27:53.589Z,18.37
2019-02-27T17:30:20.669Z,20.08
2019-02-27T17:32:47.795Z,20.05
2019-02-27T17:35:14.706Z,20.01
2019-02-27T17:37:41.649Z,20.01
2019-02-27T17:40:09.261Z,19.95
2019-02-27T17:42:37.946Z,19.78
2019-02-27T17:45:05.121Z,19.58
2019-02-27T17:47:32.448Z,19.37
2019-02-27T17:49:59.406Z,19.20
2019-02-27T17:52:26.273Z,19.07
2019-02-27T17:54:53.306Z,18.99
2019-02-27T17:57:24.230Z,18.94
2019-02-27T17:59:48.910Z,18.84
2019-02-27T18:02:15.807Z,18.76
2019-02-27T18:04:45.303Z,18.75
2019-02-27T18:07:11.847Z,18.73
2019-02-27T18:09:40.386Z,18.71
2019-02-27T18:12:07.902Z,18.67
2019-02-27T18:14:34.898Z,18.61
2019-02-27T18:17:02.175Z,18.60
2019-02-27T18:19:29.129Z,18.56
2019-02-27T18:21:56.129Z,18.58
2019-02-27T18:24:23.442Z,18.55
2019-02-27T18:26:51.295Z,18.52
2019-02-27T18:29:19.285Z,18.47
2019-02-27T18:31:46.485Z,18.45
2019-02-27T18:34:16.669Z,18.44
2019-02-27T18:36:46.488Z,18.39
2019-02-27T18:39:12.486Z,18.36
2019-02-27T18:41:39.810Z,18.32
2019-02-27T18:44:08.088Z,18.27
2019-02-27T18:46:36.716Z,18.23
2019-02-27T18:49:04.009Z,18.18
2019-02-27T18:51:33.225Z,18.09
2019-02-27T18:54:02.275Z,18.02
2019-02-27T18:56:29.123Z,17.99
2019-02-27T18:58:56.457Z,17.96
2019-02-27T19:01:23.870Z,17.94
2019-02-27T19:03:51.307Z,17.89
2019-02-27T19:06:18.687Z,17.88
2019-02-27T19:08:47.185Z,17.86
2019-02-27T19:11:16.794Z,17.83
2019-02-27T19:13:44.042Z,17.77
2019-02-27T19:16:11.011Z,17.69
2019-02-27T19:18:38.464Z,17.63
2019-02-27T19:21:07.020Z,17.60
2019-02-27T19:23:34.327Z,17.57
2019-02-27T19:26:01.852Z,17.57
2019-02-27T19:28:28.898Z,17.57
2019-02-27T19:30:56.185Z,17.56
2019-02-27T19:33:23.138Z,17.53
2019-02-27T19:35:50.110Z,17.47
2019-02-27T19:38:17.151Z,17.42
2019-02-27T19:40:45.607Z,17.40
2019-02-27T19:43:12.724Z,17.37
2019-02-27T19:45:42.278Z,17.36
2019-02-27T19:48:10.507Z,17.36
2019-02-27T19:50:46.237Z,17.35
2019-02-27T19:53:13.896Z,17.33
2019-02-27T19:55:40.909Z,17.30
2019-02-27T19:58:09.052Z,17.24
2019-02-27T20:03:22.503Z,17.20
2019-02-27T20:05:58.847Z,17.15
2019-02-27T20:08:32.972Z,17.13
2019-02-27T20:11:02.375Z,17.15
2019-02-27T20:13:38.401Z,17.16
2019-02-27T20:16:05.756Z,17.15
2019-02-27T20:18:32.868Z,17.03
2019-02-27T20:21:00.233Z,16.89
2019-02-27T20:23:30.736Z,16.79
2019-02-27T20:26:00.174Z,16.79
2019-02-27T20:28:29.050Z,16.82
2019-02-27T20:31:00.802Z,16.84
2019-02-27T20:33:37.203Z,16.84
2019-02-27T20:36:11.955Z,16.85
2019-02-27T20:38:39.497Z,16.83
2019-02-27T20:41:06.855Z,16.85
2019-02-27T20:43:34.318Z,16.82
2019-02-27T20:46:03.686Z,16.78
2019-02-27T20:48:36.136Z,16.79
2019-02-27T20:51:08.662Z,16.76
2019-02-27T20:53:55.437Z,16.77
2019-02-27T20:56:26.935Z,16.75
2019-02-27T20:58:59.386Z,16.71
2019-02-27T21:01:36.858Z,16.69
2019-02-27T21:04:22.966Z,16.66
2019-02-27T21:06:50.740Z,16.66
2019-02-27T21:09:19.853Z,16.67
2019-02-27T21:11:52.808Z,16.67
2019-02-27T21:14:20.531Z,16.70
2019-02-27T21:16:48.573Z,16.69
2019-02-27T21:19:15.560Z,16.65
2019-02-27T21:21:43.727Z,16.63
2019-02-27T21:27:12.054Z,16.54
2019-02-27T21:29:49.381Z,16.43
2019-02-27T21:32:16.654Z,16.45
2019-02-27T21:34:46.271Z,16.48
2019-02-27T21:40:03.716Z,16.51
2019-02-27T21:42:35.451Z,16.40
2019-02-27T21:47:52.924Z,16.33
2019-02-27T21:59:45.294Z,16.28
2019-02-27T22:16:10.564Z,15.93
2019-02-27T22:32:47.477Z,15.53
2019-02-27T22:35:21.682Z,15.50
2019-02-27T22:37:54.999Z,15.56
2019-02-27T22:40:28.313Z,15.55
2019-02-27T22:42:55.423Z,15.52
2019-02-27T22:45:29.162Z,15.51
2019-02-27T22:48:06.846Z,15.53
2019-02-27T22:59:17.097Z,15.35
2019-02-27T23:01:51.650Z,15.29
2019-02-27T23:04:23.537Z,15.24
2019-02-27T23:06:53.537Z,15.23
2019-02-27T23:09:22.214Z,15.21
2019-02-27T23:11:50.913Z,15.20
2019-02-27T23:17:10.984Z,15.17
2019-02-27T23:19:48.734Z,15.13
2019-02-27T23:25:09.273Z,15.01
2019-02-27T23:27:52.571Z,14.99
2019-02-27T23:30:30.713Z,14.96
2019-02-27T23:33:13.664Z,14.91
2019-02-27T23:35:50.206Z,14.90
2019-02-27T23:38:17.312Z,14.84
2019-02-27T23:40:49.143Z,14.81
2019-02-27T23:46:08.256Z,13.50
2019-02-27T23:48:42.059Z,14.74
2019-02-27T23:51:27.576Z,14.68
2019-02-27T23:54:05.305Z,14.65
2019-02-27T23:56:34.309Z,14.61
2019-02-27T23:59:02.564Z,14.59
